NWS Home NWS Lubbock West Texas Mesonet                      Daily Summary For 06/03/2020

Latest   N   C   S   Daily Sum   3hrΔ   24hrΔ   Soil Data 
Site Map   24hr Precip   72hr Precip   Google Plot

Previous  Date  


Station Time of Last Max Temp Min Temp Max/Min Dew Pt. Max/Min RH 10m Avg Wind 2m Avg Wind Peak Gust @ 33ft (mph) Potential Evapotranspiration
mm/day or in/day
Rain Sum Solar Rad
MJ/m^2
% Clear Day Red Flag
Abernathy 5ENE 12:55 PM 89 62 60 /55 82 / 37 9.5  (S) 6.4 23.9 mph 235° @ 1115 AM 3.3 or 0.13 0.00 12.1 89.1 0
Adrian 6WSW 12:55 PM 89 64 56 /48 72 / 27 7.6  (N) 4.6 14.7 mph 193° @ 0436 AM 3 or 0.12 0.00 11.5 88.3 0
Aiken 3WSW 12:55 PM 90 62 62 /57 87 / 36 10.1  (S) 7.1 21.9 mph 226° @ 0850 AM 3.3 or 0.13 0.00 12.6 93.7 0
Amarillo 15NNW 12:55 PM 93 64 58 /51 74 / 25 6.5  (W) 3.6 22.1 mph 191° @ 0356 AM 3 or 0.12 0.00 10.7 83.2 0
Amarillo 7SSE 12:55 PM 91 59 59 /53 93 / 28 7.5  (S) 4.6 17 mph 261° @ 0948 AM 3 or 0.12 0.00 12.1 93 0
Amarillo 9NNE 12:55 PM 93 64 59 /52 75 / 26 7.6  (S) 5.3 21.6 mph 269° @ 1240 PM 3.3 or 0.13 0.00 10.4 80.4 0
Amherst 1NE 12:55 PM 90 62 60 /52 80 / 29 8.4  (SE) 5.6 20.8 mph 218° @ 0925 AM 3.3 or 0.13 0.00 12 88.5 0
Andrews 2E 12:55 PM 89 63 64 /57 87 / 37 5.9  (SE) 2.5 15.9 mph 153° @ 1250 AM 2.5 or 0.1 0.00 12.2 85.2 0
Anton 6SSW 12:55 PM 89 61 60 /52 80 / 35 7.5  (SE) 4.9 19.4 mph 223° @ 0940 AM 3 or 0.12 0.00 12.1 89 0
Aspermont 3NE 12:55 PM 89 67 68 /64 96 / 48 8  (SE) 4.6 19.7 mph 201° @ 1040 AM 2.8 or 0.11 0.00 12.1 87.9 0
Big Bend NP - Castolon 12:55 PM 94 77 62 /58 58 / 31 7.3  (SE) 5.7 23 mph 125° @ 1246 AM 3.8 or 0.15 0.00 11.2 71.3 0
Big Bend NP - Persimmon Gap 12:55 PM 91 71 65 /61 79 / 38 10.2  (NE) 8.3 21.6 mph 32° @ 1202 AM 3.8 or 0.15 0.00 11.3 72.9 0
Big Lake 1WNW 12:55 PM 83 68 68 /63 94 / 51 8.5  (SE) 6.6 19 mph 163° @ 0814 AM 2.5 or 0.1 0.00 11.3 76.6 0
Bootleg 11WNW 12:55 PM 89 60 55 /50 79 / 26 6.9  (N) 4.3 17.5 mph 120° @ 1250 PM 2.8 or 0.11 0.00 10.6 80.4 0
Boys Ranch 1WSW 12:55 PM 94 61 56 /49 70 / 22 4.3  (SW) 2.7 20 mph 212° @ 0158 AM 2.3 or 0.09 0.00 11.6 90.8 0
Brownfield 2S 12:55 PM 87 64 62 /56 81 / 38 7.2  (S) 4.9 17.1 mph 161° @ 1210 AM 2.8 or 0.11 0.00 12.2 87.5 0
Canadian 6E 12:55 PM 95 66 65 /57 89 / 29 7.1  (SE) 4.5 20 mph 188° @ 0158 AM 3 or 0.12 0.00 11.7 93.3 0
Caprock Canyons State Park 12:55 PM 92 69 61 /56 74 / 31 11.6  (S) 7.7 25.2 mph 230° @ 0807 AM 4.1 or 0.16 0.00 12.9 97.5 0
Childress 2NNE 12:55 PM 92 69 65 /62 86 / 39 9.7  (S) 6.6 18.3 mph 176° @ 1220 PM 3.6 or 0.14 0.00 12.1 92.4 0
Clarendon 2WSW 12:55 PM 92 68 61 /55 79 / 30 10.9  (S) 7.4 20 mph 231° @ 1135 AM 4.1 or 0.16 0.00 12.6 96.5 0
Claude 12SW 12:55 PM 91 70 60 /52 66 / 28 8.8  (S) 6.2 21.7 mph 188° @ 0120 AM 3.6 or 0.14 0.00 11.5 88.2 0
Clyde 2WNW 12:55 PM 86 66 70 /65 96 / 55 8.6  (SE) 6.6 19.4 mph 233° @ 1012 AM 2.5 or 0.1 0.00 11.8 83.3 0
Colorado City 5NW 12:55 PM 88 66 68 /63 95 / 45 7.6  (SE) 4.5 23.2 mph 193° @ 1232 PM 2.5 or 0.1 0.00 11.4 80.5 0
Comanche Springs 12:55 PM 93 65 68 /64 97 / 40 6.3  (SE) 3.6 20.8 mph 188° @ 1243 PM 2.8 or 0.11 0.00 12.9 96.5 0
Coyanosa 2N 12:55 PM 93 71 66 /58 80 / 32 10.6  (SE) 7.5 23 mph 131° @ 0117 AM 4.1 or 0.16 0.00 11.4 77.3 0
Crane 1NNW 12:55 PM 88 71 67 /61 85 / 43 8.6  (SE) 7.1 18.9 mph 163° @ 0217 AM 3 or 0.12 0.00 12.1 82.8 0
Crowell 1E 12:55 PM 93 71 69 /64 86 / 41 10.3  (S) 7.7 21.2 mph 237° @ 1006 AM 3.6 or 0.14 0.00 12.3 92.4 0
Dell City 12:55 PM 90 65 62 /51 74 / 31 5.4  (SE) 3.2 15.9 mph 154° @ 1202 AM 2.8 or 0.11 0.00 11 75.9 0
Denver City 7WNW 12:55 PM 87 60 61 /52 86 / 31 5.9  (SE) 3.5 16.7 mph 148° @ 1230 AM 2.5 or 0.1 0.00 11.2 79.5 0
Dimmitt 2NE 12:55 PM 88 63 59 /53 78 / 32 10.9  (S) 7.4 22.1 mph 225° @ 0900 AM 3.6 or 0.14 0.00 12 90.3 0
Doole 3WNW 12:55 PM 89 67 69 /62 94 / 43 6.5  (S) 4.7 14.8 mph 198° @ 0822 AM 2.8 or 0.11 0.00 12.5 86.3 0
Dora NM 2SW 12:55 PM 88 61 57 /49 74 / 28 10.2  (SE) 6.9 23 mph 246° @ 0105 AM 3.6 or 0.14 0.00 10.7 78.5 0
Dozier 3W 12:55 PM 95 65 66 /63 99 / 36 7  (S) 2.9 19.9 mph 226° @ 1059 AM 3 or 0.12 0.00 11.4 88.2 0
Earth 9WSW 12:55 PM 90 62 62 /53 81 / 29 9.5  (SE) 7.2 21.9 mph 204° @ 0859 AM 3.6 or 0.14 0.00 12.3 91.7 0
Endee NM 2SW 12:55 PM 90 63 55 /51 70 / 27 4.5  (E) 2.6 14.8 mph 48° @ 1205 AM 2.3 or 0.09 0.00 10.8 83.1 0
Estelline 3SSE 12:55 PM 94 67 66 /63 88 / 37 7.2  (SE) 4.5 17.3 mph 188° @ 1226 PM 3 or 0.12 0.00 12.6 96.2 0
Floydada 2NNE 12:55 PM 89 63 61 /58 85 / 35 10.4  (SE) 7 21.2 mph 223° @ 0935 AM 3.6 or 0.14 0.00 12.4 91.7 0
Fluvanna 3WNW 12:55 PM 86 67 64 /60 83 / 45 10.9  (SE) 8.3 19.8 mph 147° @ 0130 AM 3.3 or 0.13 0.00 11.6 83.1 0
Fort Chadbourne 12:55 PM 87 66 70 /66 100 / 49 4.7  (SE) 3.2 16.5 mph 217° @ 1015 AM 2 or 0.08 0.00 11.5 80.4 0
Fort Lancaster 12:55 PM 87 73 70 /66 90 / 53 9.7  (SE) 7.1 19.6 mph 133° @ 0208 AM 2.8 or 0.11 0.00 7 46.8 0
Fort Lewis CO 12:55 PM 79 48 47 /38 78 / 27 6.7  (N) 3.7 14 mph 178° @ 1229 PM 2.3 or 0.09 0.00 11.9 96.4 0
Fort McKavett 12:55 PM 87 66 70 /64 100 / 49 4.7  (SE) 2.7 15.3 mph 154° @ 1215 PM 2 or 0.08 0.00 9 60.5 0
Friona 2NE 12:55 PM 90 60 58 /48 85 / 25 7.1  (S) 4.5 18.1 mph 218° @ 0835 AM 3 or 0.12 0.00 12.5 94 0
Fritch 1WNW 12:55 PM 93 69 60 /51 66 / 25 9.5  (S) 7.7 21.5 mph 215° @ 0423 AM 3.8 or 0.15 0.00 13.3 104.6 0
Gail 2ESE 12:55 PM 88 63 64 /57 85 / 39 6  (SE) 2.6 18.6 mph 179° @ 0850 AM 2.5 or 0.1 0.00 11.4 81.2 0
Goodlett 3W 12:55 PM 93 67 66 /62 91 / 38 9.9  (S) 6.7 19.7 mph 219° @ 1000 AM 3.6 or 0.14 0.00 12.5 95 0
Goodnight 12:55 PM 94 66 61 /52 79 / 25 8.9  (S) 5.7 20.8 mph 253° @ 1030 AM 3.6 or 0.14 0.00 11.6 89.2 0
Graham 5SSW 12:55 PM 86 67 65 /59 82 / 44 8.2  (SE) 5.7 17.6 mph 202° @ 0945 AM 2.8 or 0.11 0.00 12 86.5 0
Guadalupe Mtns Natl Park 12:55 PM 83 62 56 /49 81 / 38 4.9  (NE) 3.3 17 mph 103° @ 1206 PM 2.3 or 0.09 0.00 11.2 76 0
Guthrie 10WSW 12:55 PM 88 66 66 /62 92 / 44 9.4  (SE) 5.8 19.4 mph 209° @ 0940 AM 3 or 0.12 0.00 11.1 81.5 0
Hackberry 2SSE 12:55 PM 91 68 68 /64 91 / 45 12.3  (S) 9.1 25.9 mph 201° @ 1252 PM 3.6 or 0.14 0.00 12.7 94.7 0
Happy 1E 12:55 PM 91 62 61 /54 80 / 29 9.6  (S) 6.6 22.4 mph 238° @ 0905 AM 3.6 or 0.14 0.00 12.1 92 0
Hart 3N 12:55 PM 89 63 61 /54 82 / 31 9.8  (SE) 6.3 23.4 mph 228° @ 0900 AM 3.6 or 0.14 0.00 12.2 91.7 0
Haskell 1NW 12:55 PM 89 70 67 /64 86 / 46 9.3  (S) 7.4 18.5 mph 203° @ 1015 AM 3.3 or 0.13 0.00 11.5 84.2 0
Hefner 1SW 12:55 PM 92 72 68 /64 82 / 40 12.1  (S) 8.2 21.9 mph 209° @ 0929 AM 4.1 or 0.16 0.00 11.6 85.4 0
Hereford 2NW 12:55 PM 90 63 58 /50 76 / 28 8.2  (S) 6.2 19.9 mph 197° @ 0315 AM 3.3 or 0.13 0.00 12.1 92 0
Hobbs NM 5NW 12:55 PM 88 67 62 /52 75 / 29 6.9  (SE) 5.6 18.2 mph 149° @ 1208 AM 3 or 0.12 0.00 10.5 74.6 0
Jayton 1SSE 12:55 PM 88 67 67 /63 93 / 47 8  (SE) 5.2 17.8 mph 212° @ 0930 AM 2.8 or 0.11 0.00 12.1 88.2 0
Junction 1SSW 12:55 PM 84 62 71 /62 100 / 60 1.9  (S) 1 15 mph 129° @ 1247 PM 1.3 or 0.05 0.00 7.2 48.2 0
Kent 9E 12:55 PM 91 65 60 /49 78 / 25 5.2  (E) 3.3 20 mph 90° @ 1246 PM 2.8 or 0.11 0.00 10.6 70.5 0
Knox City 3NW 12:55 PM 91 71 68 /64 89 / 45 10.2  (S) 7.1 21.4 mph 220° @ 1020 AM 3.3 or 0.13 0.00 11.4 83.7 0
Lake Alan Henry 1NW 12:55 PM 89 67 68 /63 87 / 45 6.8  (SE) 3.6 16.2 mph 207° @ 0937 AM 2.5 or 0.1 0.00 12.1 87.6 0
Lake McClellan 2NW 12:55 PM 91 66 62 /51 81 / 26 11.6  (S) 8.4 21.9 mph 174° @ 1228 AM 3.8 or 0.15 0.00 9.6 74.1 0
Lamesa 2SE 12:55 PM 86 64 65 /58 85 / 40 6.6  (SE) 3.6 15.1 mph 185° @ 0845 AM 2.5 or 0.1 0.00 12 85.1 0
Lesley 2S 12:55 PM 95 68 64 /60 81 / 32 5.4  (SE) 3.7 17.4 mph 249° @ 1117 AM 2.8 or 0.11 0.00 12.2 93.1 0
Levelland 4S 12:55 PM 88 64 61 /56 81 / 36 8.2  (S) 5.8 17.9 mph 208° @ 0905 AM 3 or 0.12 0.00 11.6 84.1 0
Lomax 1SSE 12:55 PM 87 68 67 /59 88 / 42 8.2  (SE) 5.9 18.5 mph 195° @ 0942 AM 3 or 0.12 0.00 11.9 83.5 0
Lubbock 3WNW TTU 12:55 PM 88 66 62 /58 79 / 39 7.9  (SE) 3.6 16.9 mph 192° @ 0300 AM 3 or 0.12 0.00 11.9 86.6 0
McAdoo 3NNW 12:55 PM 89 63 65 /59 87 / 43 11  (S) 7.4 21.9 mph 237° @ 1049 AM 3.3 or 0.13 0.00 11.7 85.9 0
McCamey 1SSW 12:55 PM 86 71 67 /62 85 / 48 9.9  (SE) 8.6 19.4 mph 123° @ 0949 AM 3 or 0.12 0.00 10.4 70.4 0
McLean 1E 12:55 PM 90 66 62 /58 87 / 36 11.3  (S) 8.4 21.7 mph 235° @ 1000 AM 3.6 or 0.14 0.00 11.7 90.7 0
Memphis 1NE 12:55 PM 94 66 64 /58 88 / 32 4.7  (SE) 2.7 16.2 mph 227° @ 1150 AM 2.5 or 0.1 0.00 10.2 78 0
Menard 2NW 12:55 PM 85 64 70 /64 100 / 55 4  (S) 2.6 14.9 mph 161° @ 1239 PM 1.8 or 0.07 0.00 10 67.3 0
Mertzon 3NNE 12:55 PM 88 69 71 /63 100 / 46 7.4  (SW) 5.1 18.9 mph 175° @ 0855 AM 2.5 or 0.1 0.00 10.3 70.4 0
Morton 1ENE 12:55 PM 88 64 59 /51 74 / 30 7.9  (SE) 5.2 17.5 mph 214° @ 0850 AM 3 or 0.12 0.00 11.2 81.6 0
Muleshoe 2SSW 12:55 PM 88 60 60 /50 87 / 27 8.7  (SE) 5.2 20.3 mph 170° @ 0100 AM 3 or 0.12 0.00 12.8 95.3 0
New Home 12:55 PM 86 64 64 /58 82 / 43 7.5  (S) 5 18.5 mph 209° @ 0912 AM 2.8 or 0.11 0.00 12.1 87.5 0
Northfield 1S 12:55 PM 94 67 63 /58 85 / 33 8.5  (S) 5.5 20.2 mph 168° @ 1225 AM 3.6 or 0.14 0.00 12.3 93 0
O'Donnell 1N 12:55 PM 87 64 64 /56 81 / 42 6.9  (SE) 4.7 18.8 mph 187° @ 0840 AM 2.5 or 0.1 0.00 10.7 76.3 0
Odell 4ENE 12:55 PM 92 71 69 /65 86 / 41 11.2  (SE) 8.1 21.5 mph 212° @ 1251 PM 3.6 or 0.14 0.00 12.3 93.8 0
Olton 6S 12:55 PM 89 60 62 /55 88 / 33 9.5  (SE) 5.9 23.2 mph 214° @ 1025 AM 3.3 or 0.13 0.00 11.1 82.4 0
Paducah 10SW 12:55 PM 90 66 65 /62 93 / 41 10.7  (S) 6.2 24.3 mph 231° @ 0915 AM 3.3 or 0.13 0.00 11.3 84.2 0
Palo Duro 4E (JA Ranch) 12:55 PM 95 62 63 /58 88 / 31 6.2  (SE) 4 19.8 mph 232° @ 1057 AM 2.8 or 0.11 0.00 11.8 90.6 0
Palo Duro Canyon SP Floor 12:55 PM 97 66 62 /54 73 / 24 4.2  (SE) 1.5 18.7 mph 265° @ 1036 AM 2.5 or 0.1 0.00 11.3 86.4 0
Palo Duro Canyon State Park Rim 12:55 PM 93 64 59 /53 74 / 26 6.2  (S) 2.6 19.7 mph 182° @ 1238 AM 2.8 or 0.11 0.00 9.7 74.6 0
Palo Duro Reservoir 1NW 12:55 PM 92 62 60 /52 76 / 26 9.3  (NW) 6.4 25.7 mph 207° @ 0251 AM 3.6 or 0.14 0.00 12.1 97.8 0
Pampa 2E 12:55 PM 91 65 61 /52 84 / 28 10.4  (S) 7.3 21 mph 240° @ 0750 AM 3.6 or 0.14 0.00 7.2 56.5 0
Panhandle 1SSW 12:55 PM 91 62 61 /53 87 / 28 9.2  (SE) 6.5 18.5 mph 251° @ 0958 AM 3.3 or 0.13 0.00 12 92.9 0
Plains 3N 12:55 PM 87 64 61 /55 80 / 35 7  (SE) 4.9 20 mph 152° @ 1235 AM 2.8 or 0.11 0.00 11.1 79.7 0
Plainview 1S 12:55 PM 89 65 63 /58 84 / 36 8.3  (SE) 5.3 22.4 mph 225° @ 0900 AM 3 or 0.12 0.00 11.1 82.8 0
Post 1NE 12:55 PM 88 67 66 /59 84 / 41 6.5  (SE) 3.3 17.5 mph 196° @ 0935 AM 2.8 or 0.11 0.00 12.2 88 0
Ralls 1SE 12:55 PM 87 63 61 /56 82 / 39 8.6  (SE) 5.4 23.8 mph 215° @ 1245 PM 3 or 0.12 0.00 12.3 90 0
Reese Center 12:55 PM 88 62 62 /56 81 / 38 8.4  (SE) 5.4 19.7 mph 212° @ 0959 AM 3 or 0.12 0.00 12.3 89.9 0
Roaring Springs 3N 12:55 PM 90 63 66 /61 97 / 42 10.5  (S) 7.6 23.2 mph 221° @ 0840 AM 3.3 or 0.13 0.00 11.6 86.3 0
Romero 11SSW 12:55 PM 92 61 54 /50 69 / 26 4.2  (S) 2.3 14.8 mph 237° @ 1253 PM 2.3 or 0.09 0.00 11.7 91.5 0
Rotan 5W 12:55 PM 91 68 67 /62 89 / 38 10.9  (SE) 7.1 23.5 mph 211° @ 0843 AM 3.6 or 0.14 0.00 12.4 89.4 0
San Angelo 7NW 12:55 PM 88 67 66 /60 89 / 43 5.7  (SE) 3.6 14.8 mph 174° @ 0910 AM 2.5 or 0.1 0.00 10 68.8 0
Seagraves 1SW 12:55 PM 87 62 63 /55 84 / 39 6.1  (SE) 3.9 16.7 mph 204° @ 0850 AM 2.5 or 0.1 0.00 11 78.4 0
Segovia 7SSW 12:55 PM 81 67 69 /66 98 / 63 5.7  (SE) 3.7 17.2 mph 143° @ 1234 PM 1.8 or 0.07 0.00 7.5 49.9 0
Seminole 2NNE 12:55 PM 87 63 62 /55 80 / 36 6.1  (SE) 3.8 16.3 mph 145° @ 1220 AM 2.5 or 0.1 0.00 11.7 83.2 0
Seymour 3NW 12:55 PM 90 69 68 /64 90 / 49 8  (S) 5.7 20.8 mph 214° @ 0945 AM 2.8 or 0.11 0.00 10.7 79.2 0
Sierra Blanca 1SSE 12:55 PM 90 66 58 /42 66 / 26 6.1  (E) 4.3 18.5 mph 178° @ 1107 AM 3 or 0.12 0.00 10.1 67.4 0
Silverton 7ESE 12:55 PM 90 66 61 /57 83 / 36 11.9  (S) 8.3 24.4 mph 233° @ 1000 AM 3.8 or 0.15 0.00 11.1 83.9 0
Slaton 2NE 12:55 PM 86 63 64 /58 86 / 45 9.7  (SE) 6.1 20.5 mph 203° @ 0855 AM 3 or 0.12 0.00 11.2 81.2 0
Smyer 12:55 PM 89 65 62 /57 77 / 36 7.2  (S) 5.7 18.7 mph 213° @ 0939 AM 3 or 0.12 0.00 12.7 92.9 0
Snyder 3E 12:55 PM 89 67 65 /60 91 / 42 9.7  (SE) 4.4 20.2 mph 155° @ 0100 AM 3.3 or 0.13 0.00 10.9 78 0
Snyder 3SSW 12:55 PM 88 66 68 /63 97 / 47 8.8  (SE) 6.4 20.8 mph 198° @ 1227 PM 2.8 or 0.11 0.00 11.4 81.2 0
South Plains 3ENE 12:55 PM 90 65 63 /59 81 / 36 10  (S) 6.6 21.9 mph 213° @ 0900 AM 3.6 or 0.14 0.00 12.1 90.2 0
Spur 1W 12:55 PM 87 64 66 /60 91 / 50 5.5  (SE) 3.3 17.4 mph 223° @ 1055 AM 2.3 or 0.09 0.00 12.1 88.9 0
St. Lawrence 5SW 12:55 PM 85 67 66 /58 91 / 45 9.8  (SE) 7.9 18.3 mph 165° @ 1015 AM 3 or 0.12 0.00 10.5 71.9 0
Stamford 5ESE 12:55 PM 89 69 69 /65 90 / 49 8.4  (SE) 6.5 16.7 mph 234° @ 0921 AM 2.8 or 0.11 0.00 11.8 85.3 0
Sterling City 4WSW 12:55 PM 88 67 70 /61 100 / 43 6.2  (E) 4.3 17.2 mph 202° @ 0942 AM 2.3 or 0.09 0.00 7.9 54.8 0
Stinnett 1NNW 12:55 PM 92 64 60 /51 79 / 25 9.9  (S) 6.2 18 mph 195° @ 1219 AM 3.8 or 0.15 0.00 11.1 87.9 0
Stratford 4WNW 12:55 PM 91 57 53 /47 72 / 25 7  (W) 4.5 14 mph 267° @ 0319 AM 3 or 0.12 0.00 11.2 89.8 0
Sundown 8WSW 12:55 PM 88 59 60 /53 84 / 33 7.8  (SE) 4.3 18.1 mph 200° @ 0850 AM 3 or 0.12 0.00 10.4 74.9 0
Sweetwater 11SW 12:55 PM 87 67 67 /62 94 / 46 9.9  (SE) 7.4 19.7 mph 147° @ 1204 AM 3 or 0.12 0.00 12.6 88.9 0
Tahoka 3NNE 12:55 PM 87 62 65 /57 84 / 43 8.6  (SE) 4.8 19.9 mph 188° @ 0844 AM 2.8 or 0.11 0.00 12 86.9 0
Tarzan 2WNW 12:55 PM 88 65 66 /60 93 / 41 7.4  (SE) 4.2 17.4 mph 176° @ 0851 AM 2.8 or 0.11 0.00 11.9 83.3 0
Tatum NM 2SW 12:55 PM 90 63 58 /51 78 / 27 6.8  (SE) 3.2 18.5 mph 145° @ 1230 AM 3 or 0.12 0.00 11.4 81.5 0
Throckmorton 1SW 12:55 PM 92 70 70 /67 93 / 45 6.9  (S) 3.3 16.8 mph 201° @ 1027 AM 2.8 or 0.11 0.00 12.3 89.7 0
Truscott 2SE 12:55 PM 92 71 68 /64 87 / 42 10.3  (S) 6.5 19.8 mph 197° @ 0859 AM 3.6 or 0.14 0.00 12.4 92.5 0
Tulia 2ENE 12:55 PM 90 65 61 /55 76 / 35 10.3  (S) 7.2 23.5 mph 227° @ 0830 AM 3.6 or 0.14 0.00 11 83.2 0
Turkey 2WSW 12:55 PM 92 69 62 /60 76 / 35 10  (SE) 7.4 20.5 mph 206° @ 0910 AM 3.8 or 0.15 0.00 10.9 82.4 0
Umbarger 3NNE 12:55 PM 91 61 59 /52 81 / 28 7.7  (S) 5.2 17.3 mph 185° @ 1224 AM 3 or 0.12 0.00 11.8 90.3 0
Van Horn 3ENE 12:55 PM 92 66 60 /47 71 / 25 5.9  (NE) 3.5 16.6 mph 173° @ 1054 AM 3 or 0.12 0.00 11.4 76 0
Vigo Park 12:55 PM 92 61 63 /58 91 / 33 10.5  (S) 6.7 22.4 mph 228° @ 0856 AM 3.6 or 0.14 0.00 10.7 81.3 0
Wall 2E 12:55 PM 89 70 69 /64 90 / 44 9.7  (SE) 7 20.5 mph 166° @ 0136 AM 3 or 0.12 0.00 10.8 74.2 0
Weinert 2NNE 12:55 PM 90 71 68 /63 81 / 41 11.8  (SE) 8.9 22.9 mph 181° @ 0402 AM 3.8 or 0.15 0.00 10.9 80 0
Welch 12:55 PM 87 61 65 /55 84 / 43 6.3  (SE) 4.1 17 mph 193° @ 0857 AM 2.5 or 0.1 0.00 12.1 86.2 0
White River Lake 6NW 12:55 PM 86 66 65 /59 83 / 48 7.6  (SE) 4.3 20.2 mph 214° @ 0915 AM 2.8 or 0.11 0.00 12.4 90.6 0
Wolfforth 6SSW 12:55 PM 86 63 62 /56 82 / 42 7.4  (SE) 4.8 18.9 mph 230° @ 0935 AM 2.8 or 0.11 0.00 12.2 88.5 0

WestTexas Mesonet Home    Site Map/Menu  National Weather Service Lubbock   Soil Data   Latest Observation Page   Previous  Date